Time;durP1;ratioP1;P1;durP2;ratioP2;P2;SDS_P1;SDS_P2;PMS_P1;PMS_P2;Temp;Humidity;BMP_temperature;BMP_pressure;BME280_temperature;BME280_humidity;BME280_pressure;Samples;Min_cycle;Max_cycle;Signal;HPM_P1;HPM_P2
2023/12/12 00:00:19;;;;;;;10.70;3.65;;;;;;;7.76;100.00;100523.63;5002941;28;20494;-88
2023/12/12 00:02:45;;;;;;;33.20;5.47;;;;;;;7.80;100.00;100526.00;4994717;28;20030;-90
2023/12/12 00:05:10;;;;;;;23.85;4.68;;;;;;;7.81;100.00;100530.47;5023645;28;20025;-88
2023/12/12 00:07:36;;;;;;;18.67;4.22;;;;;;;7.80;100.00;100525.13;5004113;28;20132;-88
2023/12/12 00:10:07;;;;;;;19.25;3.58;;;;;;;7.77;100.00;100528.06;5000562;28;20076;-88
2023/12/12 00:12:32;;;;;;;22.63;4.88;;;;;;;7.76;100.00;100527.22;5040383;28;20040;-88
2023/12/12 00:14:58;;;;;;;26.70;4.55;;;;;;;7.75;100.00;100530.91;5021656;28;20129;-88
2023/12/12 00:17:24;;;;;;;19.13;3.75;;;;;;;7.74;100.00;100545.53;5015503;28;20079;-87
2023/12/12 00:19:49;;;;;;;23.35;4.07;;;;;;;7.71;100.00;100543.88;5013605;28;20026;-87
2023/12/12 00:22:15;;;;;;;15.70;3.97;;;;;;;7.74;100.00;100534.63;5013317;28;20039;-87
2023/12/12 00:24:40;;;;;;;12.48;3.47;;;;;;;7.67;100.00;100545.09;5004674;28;20048;-87
2023/12/12 00:27:06;;;;;;;23.25;4.22;;;;;;;7.70;100.00;100549.44;5015036;28;20738;-87
2023/12/12 00:29:35;;;;;;;29.33;5.53;;;;;;;7.69;100.00;100547.69;4987914;28;20091;-86
2023/12/12 00:32:02;;;;;;;18.08;4.25;;;;;;;7.67;100.00;100546.94;5041155;28;20044;-87
2023/12/12 00:34:29;;;;;;;20.88;4.38;;;;;;;7.67;100.00;100538.75;5055203;28;20047;-88
2023/12/12 00:36:55;;;;;;;20.95;4.32;;;;;;;7.66;100.00;100540.63;5012321;28;20128;-87
2023/12/12 00:39:21;;;;;;;18.58;4.30;;;;;;;7.65;100.00;100538.00;5050989;28;20051;-88
2023/12/12 00:41:47;;;;;;;16.20;3.85;;;;;;;7.65;100.00;100529.84;5052777;28;20029;-88
2023/12/12 00:44:13;;;;;;;21.92;4.18;;;;;;;7.67;100.00;100541.50;5038917;28;20083;-86
2023/12/12 00:46:38;;;;;;;19.27;4.18;;;;;;;7.64;100.00;100531.69;5035940;28;20425;-87
2023/12/12 00:49:04;;;;;;;14.77;4.30;;;;;;;7.64;100.00;100526.25;5040093;28;20025;-87
2023/12/12 00:51:32;;;;;;;20.25;4.25;;;;;;;7.61;100.00;100531.91;5029637;28;20039;-87
2023/12/12 00:53:58;;;;;;;11.70;3.67;;;;;;;7.59;100.00;100533.91;5032853;28;20025;-88
2023/12/12 00:56:24;;;;;;;16.80;3.97;;;;;;;7.61;100.00;100529.19;5017989;28;20037;-88
2023/12/12 00:58:50;;;;;;;24.92;4.93;;;;;;;7.59;100.00;100530.28;5009691;28;20040;-87
2023/12/12 01:01:16;;;;;;;16.80;3.75;;;;;;;7.59;100.00;100531.16;5022577;28;20053;-88
2023/12/12 01:03:41;;;;;;;25.80;5.05;;;;;;;7.57;100.00;100518.63;5053312;28;20051;-88
2023/12/12 01:06:08;;;;;;;26.27;5.10;;;;;;;7.58;100.00;100523.09;5057432;28;20086;-88
2023/12/12 01:08:33;;;;;;;25.23;4.20;;;;;;;7.61;100.00;100521.03;5045844;28;20033;-88
2023/12/12 01:11:00;;;;;;;22.35;4.35;;;;;;;7.57;100.00;100522.22;5009146;28;20029;-87
2023/12/12 01:13:26;;;;;;;20.63;5.30;;;;;;;7.50;100.00;100518.19;5038673;28;20493;-88
2023/12/12 01:15:51;;;;;;;27.25;4.97;;;;;;;7.49;100.00;100524.63;5022910;28;20038;-88
2023/12/12 01:18:17;;;;;;;29.17;5.90;;;;;;;7.49;100.00;100520.06;5020259;28;20422;-87
2023/12/12 01:20:42;;;;;;;27.52;6.15;;;;;;;7.51;100.00;100523.53;5013996;28;20051;-87
2023/12/12 01:23:07;;;;;;;23.52;4.85;;;;;;;7.50;100.00;100515.47;5029642;28;20057;-88
2023/12/12 01:25:33;;;;;;;16.73;4.70;;;;;;;7.49;100.00;100511.88;5038093;28;20099;-88
2023/12/12 01:27:59;;;;;;;24.83;5.47;;;;;;;7.46;100.00;100503.94;5009173;28;20435;-88
2023/12/12 01:30:26;;;;;;;27.80;5.07;;;;;;;7.44;100.00;100497.69;5059722;28;21189;-87
2023/12/12 01:32:51;;;;;;;32.38;5.63;;;;;;;7.44;100.00;100499.56;5025186;28;20052;-88
2023/12/12 01:35:17;;;;;;;19.50;5.40;;;;;;;7.42;100.00;100496.94;5023088;28;20055;-87
2023/12/12 01:37:42;;;;;;;33.00;5.22;;;;;;;7.37;100.00;100499.13;5045074;28;20041;-87
2023/12/12 01:40:08;;;;;;;32.10;5.35;;;;;;;7.36;100.00;100501.00;5066768;28;20052;-87
2023/12/12 01:42:34;;;;;;;22.13;5.18;;;;;;;7.38;100.00;100500.00;5047940;28;20553;-88
2023/12/12 01:44:59;;;;;;;26.08;5.75;;;;;;;7.27;100.00;100495.34;5033530;28;20024;-88
2023/12/12 01:47:26;;;;;;;29.42;5.43;;;;;;;7.29;100.00;100501.53;5028164;28;20516;-87
2023/12/12 01:49:52;;;;;;;24.92;5.30;;;;;;;7.22;100.00;100494.78;5054563;28;20037;-87
2023/12/12 01:52:20;;;;;;;23.50;5.10;;;;;;;7.19;100.00;100495.88;5023104;28;20556;-88
2023/12/12 01:54:47;;;;;;;27.58;4.53;;;;;;;7.17;100.00;100495.97;5048694;28;20032;-87
2023/12/12 01:57:16;;;;;;;27.67;5.22;;;;;;;7.08;100.00;100485.72;5058745;28;20041;-88
2023/12/12 01:59:42;;;;;;;27.08;5.43;;;;;;;7.03;100.00;100492.47;5048024;28;20028;-87
2023/12/12 02:02:09;;;;;;;34.10;5.35;;;;;;;7.01;100.00;100494.44;5042188;28;20029;-87
2023/12/12 02:04:35;;;;;;;30.15;5.28;;;;;;;6.98;100.00;100498.25;5059238;28;20028;-87
2023/12/12 02:07:04;;;;;;;36.85;5.07;;;;;;;6.91;100.00;100491.50;5016758;28;20044;-87
2023/12/12 02:09:30;;;;;;;25.15;4.82;;;;;;;6.88;100.00;100500.75;5038618;28;20112;-88
2023/12/12 02:11:55;;;;;;;36.13;5.45;;;;;;;6.79;100.00;100496.81;5020346;28;20021;-88
2023/12/12 02:14:21;;;;;;;29.05;4.30;;;;;;;6.77;100.00;100495.16;5023343;28;20025;-88
2023/12/12 02:16:46;;;;;;;30.98;5.55;;;;;;;6.76;100.00;100494.31;5031106;28;20363;-88
2023/12/12 02:19:12;;;;;;;31.83;4.47;;;;;;;6.72;100.00;100498.22;5008344;28;20124;-88
2023/12/12 02:21:37;;;;;;;26.88;4.72;;;;;;;6.66;100.00;100495.03;5026096;28;20474;-87
2023/12/12 02:24:03;;;;;;;25.55;4.35;;;;;;;6.69;100.00;100503.88;5004989;28;20542;-88
2023/12/12 02:26:29;;;;;;;30.50;5.50;;;;;;;6.61;100.00;100492.66;5018299;28;20033;-87
2023/12/12 02:28:56;;;;;;;26.75;4.43;;;;;;;6.65;100.00;100496.88;5002453;28;20036;-88
2023/12/12 02:31:21;;;;;;;33.13;5.40;;;;;;;6.61;100.00;100490.78;5045689;28;20029;-88
2023/12/12 02:33:47;;;;;;;30.77;4.40;;;;;;;6.61;100.00;100498.94;5008537;28;20506;-87
2023/12/12 02:36:12;;;;;;;31.50;4.88;;;;;;;6.56;100.00;100497.50;5049324;28;20060;-87
2023/12/12 02:38:37;;;;;;;28.15;5.60;;;;;;;6.51;100.00;100495.13;5049163;28;20395;-87
2023/12/12 02:41:03;;;;;;;30.27;5.00;;;;;;;6.57;100.00;100493.81;5047120;28;20119;-87
2023/12/12 02:43:29;;;;;;;40.33;6.22;;;;;;;6.54;100.00;100492.19;5027899;28;20025;-87
2023/12/12 02:45:54;;;;;;;30.92;5.65;;;;;;;6.51;100.00;100495.13;5019543;28;20504;-87
2023/12/12 02:48:21;;;;;;;31.58;5.20;;;;;;;6.49;100.00;100490.75;5059278;28;20120;-86
2023/12/12 02:50:47;;;;;;;32.80;5.40;;;;;;;6.42;100.00;100493.88;5007927;28;20656;-88
2023/12/12 02:53:12;;;;;;;41.47;5.28;;;;;;;6.41;100.00;100494.88;5033024;28;20094;-87
2023/12/12 02:55:37;;;;;;;43.30;5.03;;;;;;;6.38;100.00;100492.38;5053052;28;20037;-88
2023/12/12 02:58:03;;;;;;;28.65;5.22;;;;;;;6.35;100.00;100497.13;5021803;28;20021;-88
2023/12/12 03:00:28;;;;;;;45.05;5.72;;;;;;;6.36;100.00;100488.00;5000263;28;20087;-88
2023/12/12 03:02:54;;;;;;;36.15;4.88;;;;;;;6.29;100.00;100482.09;5033003;28;20402;-87
2023/12/12 03:05:23;;;;;;;49.58;6.90;;;;;;;6.28;100.00;100485.81;5050392;28;20427;-88
2023/12/12 03:07:48;;;;;;;45.97;5.50;;;;;;;6.26;100.00;100485.03;5028165;28;20035;-88
2023/12/12 03:10:13;;;;;;;48.35;5.75;;;;;;;6.27;100.00;100481.34;5044822;28;20119;-88
2023/12/12 03:12:40;;;;;;;40.63;5.10;;;;;;;6.24;100.00;100473.38;5026624;28;20044;-88
2023/12/12 03:15:06;;;;;;;53.80;5.68;;;;;;;6.24;100.00;100481.53;5026456;28;20483;-87
2023/12/12 03:17:31;;;;;;;61.83;6.95;;;;;;;6.18;100.00;100482.84;5015869;28;20052;-88
2023/12/12 03:19:56;;;;;;;49.97;7.13;;;;;;;6.17;100.00;100489.22;5018922;28;20067;-87
2023/12/12 03:22:22;;;;;;;44.00;6.90;;;;;;;6.11;100.00;100480.63;5002898;28;20506;-87
2023/12/12 03:24:47;;;;;;;55.40;7.07;;;;;;;6.13;100.00;100484.97;5032928;28;20115;-87
2023/12/12 03:27:13;;;;;;;42.53;5.95;;;;;;;6.11;100.00;100481.47;5002437;28;20564;-86
2023/12/12 03:29:39;;;;;;;57.17;6.20;;;;;;;6.04;100.00;100486.47;5035739;28;20033;-87
2023/12/12 03:32:05;;;;;;;52.53;6.10;;;;;;;6.01;100.00;100480.34;5023226;28;20136;-87
2023/12/12 03:34:30;;;;;;;42.92;5.10;;;;;;;5.93;100.00;100466.38;5049509;28;20534;-87
2023/12/12 03:36:56;;;;;;;43.78;6.05;;;;;;;5.96;100.00;100469.78;5019345;28;20034;-88
2023/12/12 03:39:21;;;;;;;46.40;5.68;;;;;;;5.91;100.00;100471.03;5050380;28;20035;-87
2023/12/12 03:41:47;;;;;;;49.08;6.97;;;;;;;5.86;100.00;100469.50;5024177;28;20095;-87
2023/12/12 03:44:12;;;;;;;45.08;6.90;;;;;;;5.82;100.00;100461.63;5026994;28;20037;-86
2023/12/12 03:46:38;;;;;;;53.63;7.20;;;;;;;5.77;100.00;100458.34;5018705;28;20070;-87
2023/12/12 03:49:04;;;;;;;53.30;7.32;;;;;;;5.82;100.00;100456.19;5047936;28;20482;-87
2023/12/12 03:51:30;;;;;;;49.33;7.03;;;;;;;5.73;100.00;100441.38;5039095;28;20080;-87
2023/12/12 03:53:55;;;;;;;50.47;8.60;;;;;;;5.75;100.00;100444.00;5019259;28;20521;-87
2023/12/12 03:56:21;;;;;;;64.72;7.43;;;;;;;5.76;100.00;100446.63;5027592;28;20031;-87
2023/12/12 03:58:47;;;;;;;70.65;8.57;;;;;;;5.76;100.00;100435.75;5035344;28;20143;-87
2023/12/12 04:01:12;;;;;;;41.22;7.68;;;;;;;5.67;100.00;100434.53;5020694;28;20386;-88
2023/12/12 04:03:38;;;;;;;42.72;7.68;;;;;;;5.62;100.00;100433.94;5014501;28;20032;-87
2023/12/12 04:06:05;;;;;;;49.75;8.30;;;;;;;5.67;100.00;100431.81;5027064;28;20037;-88
2023/12/12 04:08:31;;;;;;;48.28;6.72;;;;;;;5.63;100.00;100424.81;5008402;28;20025;-88
2023/12/12 04:10:57;;;;;;;55.47;7.50;;;;;;;5.60;100.00;100421.44;5024548;28;20036;-87
2023/12/12 04:13:22;;;;;;;50.78;7.30;;;;;;;5.65;100.00;100416.56;5035398;28;20033;-88
2023/12/12 04:15:48;;;;;;;50.30;7.65;;;;;;;5.57;100.00;100417.06;5035236;28;20116;-88
2023/12/12 04:18:13;;;;;;;48.70;7.35;;;;;;;5.51;100.00;100410.22;5007771;28;20493;-88
2023/12/12 04:20:38;;;;;;;52.40;8.35;;;;;;;5.53;100.00;100418.25;5061069;28;20021;-88
2023/12/12 04:23:04;;;;;;;42.20;6.63;;;;;;;5.61;100.00;100417.78;5024555;28;20021;-87
2023/12/12 04:25:31;;;;;;;48.53;8.23;;;;;;;5.49;100.00;100414.88;5054690;28;20044;-88
2023/12/12 04:27:56;;;;;;;64.53;8.18;;;;;;;5.56;100.00;100409.91;5059353;28;20755;-88
2023/12/12 04:30:21;;;;;;;61.55;8.50;;;;;;;5.57;100.00;100403.50;5023954;28;20028;-87
2023/12/12 04:32:47;;;;;;;44.38;7.45;;;;;;;5.66;100.00;100405.63;5040597;28;20091;-88
2023/12/12 04:35:12;;;;;;;60.08;7.60;;;;;;;5.73;100.00;100411.50;5033339;28;20093;-87
2023/12/12 04:37:38;;;;;;;57.53;7.78;;;;;;;5.76;100.00;100402.31;5029138;28;20026;-87
2023/12/12 04:40:03;;;;;;;56.88;7.88;;;;;;;5.72;100.00;100404.31;5024243;28;20029;-87
2023/12/12 04:42:29;;;;;;;61.00;8.20;;;;;;;5.74;100.00;100396.97;5049219;28;20043;-87
2023/12/12 04:44:55;;;;;;;31.95;6.35;;;;;;;5.72;100.00;100398.91;5036111;28;20036;-87
2023/12/12 04:47:20;;;;;;;47.58;8.52;;;;;;;5.77;100.00;100393.16;5020030;28;20029;-88
2023/12/12 04:49:46;;;;;;;51.88;8.00;;;;;;;5.66;100.00;100394.75;5027491;28;20090;-88
2023/12/12 04:52:11;;;;;;;58.10;8.55;;;;;;;5.62;100.00;100395.91;5024833;28;20120;-87
2023/12/12 04:54:37;;;;;;;51.80;7.72;;;;;;;5.73;100.00;100383.50;5043774;28;20401;-88
2023/12/12 04:57:02;;;;;;;54.53;8.45;;;;;;;5.74;100.00;100385.22;5026073;28;20040;-87
2023/12/12 04:59:28;;;;;;;69.85;8.80;;;;;;;5.81;100.00;100376.56;5061232;28;20032;-86
2023/12/12 05:01:54;;;;;;;51.63;7.47;;;;;;;5.94;100.00;100379.31;5055152;28;20036;-87
2023/12/12 05:04:19;;;;;;;54.80;7.68;;;;;;;5.98;100.00;100372.72;5057432;28;20032;-86
2023/12/12 05:06:46;;;;;;;43.88;7.03;;;;;;;5.89;100.00;100374.19;5017961;28;20021;-89
2023/12/12 05:09:11;;;;;;;44.47;7.55;;;;;;;5.94;100.00;100382.03;5065088;28;20032;-87
2023/12/12 05:11:37;;;;;;;46.58;7.28;;;;;;;5.98;100.00;100382.72;5049280;28;20106;-88
2023/12/12 05:14:04;;;;;;;54.70;9.40;;;;;;;6.02;100.00;100368.84;5046817;28;20047;-88
2023/12/12 05:16:30;;;;;;;61.35;8.38;;;;;;;6.06;100.00;100381.22;5050236;28;20047;-88
2023/12/12 05:18:56;;;;;;;44.10;7.65;;;;;;;6.11;100.00;100375.47;5057447;28;20498;-87
2023/12/12 05:21:22;;;;;;;55.03;7.47;;;;;;;6.10;100.00;100373.75;5018769;28;20048;-87
2023/12/12 05:23:48;;;;;;;48.78;9.07;;;;;;;6.15;100.00;100367.97;5044044;28;20029;-87
2023/12/12 05:26:15;;;;;;;49.90;7.55;;;;;;;6.18;100.00;100365.94;5029012;28;20029;-87
2023/12/12 05:28:41;;;;;;;70.53;8.70;;;;;;;6.17;100.00;100361.47;5038801;28;20021;-91
2023/12/12 05:31:06;;;;;;;54.85;8.90;;;;;;;6.23;100.00;100352.03;5056458;28;20040;-89
2023/12/12 05:33:32;;;;;;;62.83;8.52;;;;;;;6.26;100.00;100357.25;5067184;28;21256;-87
2023/12/12 05:35:58;;;;;;;54.13;7.93;;;;;;;6.32;100.00;100348.66;5020055;28;20029;-88
2023/12/12 05:38:23;;;;;;;52.03;7.85;;;;;;;6.21;100.00;100351.25;5005581;28;20039;-88
2023/12/12 05:40:49;;;;;;;43.20;7.50;;;;;;;6.27;100.00;100355.41;5046845;28;20033;-89
2023/12/12 05:43:14;;;;;;;45.92;7.20;;;;;;;6.25;100.00;100350.09;5041834;28;20025;-90
2023/12/12 05:45:39;;;;;;;53.05;7.43;;;;;;;6.29;100.00;100357.03;5040955;28;20029;-90
2023/12/12 05:48:05;;;;;;;51.47;7.68;;;;;;;6.25;100.00;100355.53;5028029;28;20032;-85
2023/12/12 05:50:30;;;;;;;54.58;8.32;;;;;;;6.23;100.00;100347.47;5012261;28;20124;-86
2023/12/12 05:52:56;;;;;;;53.67;7.55;;;;;;;6.27;100.00;100353.56;5021351;28;20033;-86
2023/12/12 05:55:21;;;;;;;46.55;8.32;;;;;;;6.34;100.00;100346.72;5020645;28;20035;-86
2023/12/12 05:57:48;;;;;;;46.78;7.13;;;;;;;6.29;100.00;100348.88;5020369;28;20033;-86
2023/12/12 06:00:14;;;;;;;47.25;6.80;;;;;;;6.24;100.00;100360.06;5044353;28;20060;-86
2023/12/12 06:02:39;;;;;;;53.95;7.85;;;;;;;6.20;100.00;100361.28;5053345;28;20029;-86
2023/12/12 06:05:07;;;;;;;55.35;8.52;;;;;;;6.24;100.00;100360.06;5032834;28;20552;-86
2023/12/12 06:07:33;;;;;;;40.72;7.07;;;;;;;6.30;100.00;100355.22;5039853;28;20545;-86
2023/12/12 06:09:59;;;;;;;39.05;7.70;;;;;;;6.28;100.00;100344.44;5031074;28;20063;-85
2023/12/12 06:12:24;;;;;;;66.43;9.18;;;;;;;6.29;100.00;100340.72;5011550;28;20067;-85
2023/12/12 06:14:50;;;;;;;37.88;7.22;;;;;;;6.27;100.00;100337.25;5022756;28;20040;-86
2023/12/12 06:17:15;;;;;;;39.53;6.82;;;;;;;6.24;100.00;100346.47;5024786;28;20061;-86
2023/12/12 06:19:41;;;;;;;41.53;7.30;;;;;;;6.27;100.00;100339.09;5027559;28;20044;-86
2023/12/12 06:22:07;;;;;;;41.83;7.05;;;;;;;6.31;100.00;100337.91;5011603;28;21124;-87
2023/12/12 06:24:33;;;;;;;51.17;8.20;;;;;;;6.36;100.00;100342.06;5068100;28;20089;-86
2023/12/12 06:26:58;;;;;;;42.40;7.07;;;;;;;6.43;100.00;100346.06;5041758;28;20115;-87
2023/12/12 06:29:25;;;;;;;44.28;7.43;;;;;;;6.36;100.00;100338.44;5052427;28;20028;-87
2023/12/12 06:31:51;;;;;;;46.28;8.70;;;;;;;6.37;100.00;100332.03;5038160;28;20040;-86
2023/12/12 06:34:18;;;;;;;55.63;7.38;;;;;;;6.38;100.00;100329.22;5024940;28;20036;-87
2023/12/12 06:36:43;;;;;;;41.83;7.13;;;;;;;6.39;100.00;100325.50;5042367;28;20025;-86
2023/12/12 06:39:10;;;;;;;55.42;8.68;;;;;;;6.43;100.00;100323.47;5043264;28;20396;-86
2023/12/12 06:41:36;;;;;;;56.08;9.23;;;;;;;6.47;100.00;100326.81;5047821;28;20446;-88
2023/12/12 06:44:02;;;;;;;61.25;9.55;;;;;;;6.53;100.00;100320.97;5026109;28;20107;-87
2023/12/12 06:46:28;;;;;;;49.70;7.57;;;;;;;6.49;100.00;100312.13;5028535;28;20035;-87
2023/12/12 06:48:54;;;;;;;55.33;8.40;;;;;;;6.53;100.00;100310.09;5023261;28;20036;-88
2023/12/12 06:51:19;;;;;;;56.88;9.00;;;;;;;6.53;100.00;100310.94;5039949;28;20039;-87
2023/12/12 06:53:45;;;;;;;44.80;9.68;;;;;;;6.53;100.00;100312.81;5013259;28;20041;-87
2023/12/12 06:56:10;;;;;;;56.83;8.23;;;;;;;6.52;100.00;100302.91;5019626;28;20056;-88
2023/12/12 06:58:38;;;;;;;66.70;8.27;;;;;;;6.52;100.00;100301.03;5032177;28;20048;-86
2023/12/12 07:01:05;;;;;;;61.17;9.25;;;;;;;6.43;100.00;100302.56;5022374;28;20479;-87
2023/12/12 07:03:30;;;;;;;55.75;8.70;;;;;;;6.37;100.00;100305.72;5060636;28;20558;-87
2023/12/12 07:05:56;;;;;;;49.80;8.05;;;;;;;6.34;100.00;100307.78;5044739;28;20028;-86
2023/12/12 07:08:21;;;;;;;50.40;7.38;;;;;;;6.28;100.00;100302.78;5054397;28;20036;-87
2023/12/12 07:10:48;;;;;;;44.22;7.88;;;;;;;6.31;100.00;100291.69;5013040;28;20021;-87
2023/12/12 07:13:13;;;;;;;47.17;8.05;;;;;;;6.29;100.00;100285.50;5044167;28;20502;-87
2023/12/12 07:15:39;;;;;;;56.80;8.40;;;;;;;6.29;100.00;100290.94;5022248;28;20029;-87
2023/12/12 07:18:10;;;;;;;58.97;9.07;;;;;;;6.31;100.00;100297.13;5020193;28;20079;-88
2023/12/12 07:20:41;;;;;;;63.63;9.18;;;;;;;6.30;100.00;100290.81;5028499;28;20074;-87
2023/12/12 07:23:07;;;;;;;55.08;8.90;;;;;;;6.39;100.00;100287.44;5053072;28;20036;-88
2023/12/12 07:25:32;;;;;;;51.78;8.80;;;;;;;6.42;100.00;100286.34;5026560;28;20029;-88
2023/12/12 07:27:59;;;;;;;56.47;9.35;;;;;;;6.48;100.00;100282.31;5030711;28;20057;-88
2023/12/12 07:30:27;;;;;;;55.75;8.57;;;;;;;6.52;100.00;100282.00;5021082;28;20051;-88
2023/12/12 07:32:54;;;;;;;46.38;8.98;;;;;;;6.53;100.00;100275.59;5024372;28;20065;-87
2023/12/12 07:35:20;;;;;;;58.97;9.18;;;;;;;6.55;100.00;100287.22;5018545;28;20034;-87
2023/12/12 07:37:45;;;;;;;42.38;9.20;;;;;;;6.57;100.00;100287.09;5034858;28;20047;-88
2023/12/12 07:40:11;;;;;;;58.17;9.05;;;;;;;6.58;100.00;100288.88;5024997;28;20484;-86
2023/12/12 07:42:36;;;;;;;58.45;8.50;;;;;;;6.65;100.00;100275.69;5028209;28;20052;-89
2023/12/12 07:45:02;;;;;;;55.33;9.55;;;;;;;6.69;100.00;100264.47;5059061;28;20081;-88
2023/12/12 07:47:27;;;;;;;50.33;9.23;;;;;;;6.74;100.00;100266.84;5046616;28;20043;-91
2023/12/12 07:49:53;;;;;;;60.30;8.63;;;;;;;6.75;100.00;100261.28;5019886;28;20040;-88
2023/12/12 07:52:19;;;;;;;53.03;8.57;;;;;;;6.70;100.00;100254.47;5031183;28;20031;-89
2023/12/12 07:54:44;;;;;;;44.35;8.15;;;;;;;6.76;100.00;100262.19;5023352;28;20032;-88
2023/12/12 07:57:10;;;;;;;49.97;7.90;;;;;;;6.72;100.00;100258.81;5023369;28;20032;-87
2023/12/12 07:59:35;;;;;;;41.00;8.15;;;;;;;6.74;100.00;100251.41;5019256;28;20386;-88
2023/12/12 08:02:01;;;;;;;42.95;7.95;;;;;;;6.75;100.00;100255.00;5036925;28;20032;-87
2023/12/12 08:04:26;;;;;;;45.67;7.97;;;;;;;6.81;100.00;100251.81;5038571;28;20037;-90
2023/12/12 08:06:52;;;;;;;55.97;7.82;;;;;;;6.87;100.00;100245.94;5017187;28;20053;-90
2023/12/12 08:09:19;;;;;;;59.95;8.48;;;;;;;6.91;100.00;100242.00;5030130;28;20700;-90
2023/12/12 08:11:44;;;;;;;50.47;7.53;;;;;;;6.94;100.00;100233.59;5046055;28;20086;-88
2023/12/12 08:14:10;;;;;;;42.28;7.13;;;;;;;6.94;100.00;100233.59;5013661;28;20029;-87
2023/12/12 08:16:35;;;;;;;41.50;6.85;;;;;;;6.94;100.00;100230.03;5030714;28;20021;-86
2023/12/12 08:19:00;;;;;;;39.38;7.10;;;;;;;6.98;100.00;100231.53;5034512;28;20043;-86
2023/12/12 08:21:27;;;;;;;44.08;7.38;;;;;;;6.96;100.00;100228.06;5020746;28;20032;-86
2023/12/12 08:23:55;;;;;;;43.53;6.78;;;;;;;6.96;100.00;100233.50;5027340;28;20028;-90
2023/12/12 08:26:24;;;;;;;49.58;7.88;;;;;;;6.95;100.00;100232.63;5037001;28;20096;-90
2023/12/12 08:28:49;;;;;;;46.22;6.53;;;;;;;6.99;100.00;100236.00;5038703;28;20052;-92
2023/12/12 08:31:15;;;;;;;52.80;6.90;;;;;;;7.04;100.00;100235.66;5013358;28;20486;-91
2023/12/12 08:33:40;;;;;;;40.33;7.18;;;;;;;7.09;100.00;100228.88;5039731;28;20057;-91
2023/12/12 08:36:06;;;;;;;37.78;6.85;;;;;;;7.20;100.00;100228.09;5008658;28;20033;-91
2023/12/12 08:38:32;;;;;;;38.97;7.65;;;;;;;7.32;100.00;100229.84;5014974;28;20044;-94
2023/12/12 08:40:58;;;;;;;29.70;6.40;;;;;;;7.38;100.00;100222.19;5030527;28;20025;-86
2023/12/12 08:43:23;;;;;;;33.10;8.02;;;;;;;7.43;100.00;100215.44;5039219;28;20588;-86
2023/12/12 08:45:52;;;;;;;44.30;7.57;;;;;;;7.45;100.00;100221.63;5044876;28;20152;-86
2023/12/12 08:48:18;;;;;;;41.58;8.05;;;;;;;7.44;100.00;100214.44;5054023;28;20031;-89
2023/12/12 08:50:44;;;;;;;36.90;8.82;;;;;;;7.49;100.00;100205.91;5047020;28;20025;-87
2023/12/12 08:53:10;;;;;;;39.97;8.40;;;;;;;7.51;100.00;100209.38;5042378;28;20071;-87
2023/12/12 08:55:35;;;;;;;47.22;8.93;;;;;;;7.50;100.00;100207.66;5030469;28;20029;-88
2023/12/12 08:58:01;;;;;;;36.67;7.97;;;;;;;7.48;100.00;100207.78;5018558;28;20068;-88
2023/12/12 09:00:26;;;;;;;40.55;8.55;;;;;;;7.40;100.00;100206.63;5040029;28;20505;-91
2023/12/12 09:02:52;;;;;;;47.00;8.02;;;;;;;7.53;100.00;100196.53;5023794;28;20486;-91
2023/12/12 09:05:18;;;;;;;54.45;10.15;;;;;;;7.59;100.00;100192.44;5012450;28;20094;-91
2023/12/12 09:07:45;;;;;;;50.20;7.63;;;;;;;7.63;100.00;100194.81;5047994;28;20055;-93
2023/12/12 09:10:11;;;;;;;41.00;7.28;;;;;;;7.71;100.00;100181.47;5006516;28;20025;-90
2023/12/12 09:12:37;;;;;;;31.27;7.07;;;;;;;7.74;100.00;100180.38;5006317;28;20497;-88
2023/12/12 09:15:03;;;;;;;33.80;6.25;;;;;;;7.71;100.00;100178.75;5022110;28;20200;-90
2023/12/12 09:17:29;;;;;;;37.92;6.15;;;;;;;7.75;100.00;100170.34;5038145;28;20444;-90
2023/12/12 09:19:55;;;;;;;26.35;5.88;;;;;;;7.79;100.00;100171.81;5061750;28;20520;-88
2023/12/12 09:22:20;;;;;;;35.78;6.05;;;;;;;7.80;100.00;100170.84;5016068;28;20475;-90
2023/12/12 09:24:46;;;;;;;31.52;5.22;;;;;;;7.82;100.00;100164.28;5014417;28;20045;-89
2023/12/12 09:27:11;;;;;;;29.42;5.38;;;;;;;7.93;100.00;100162.56;5024103;28;20147;-89
2023/12/12 09:29:36;;;;;;;45.08;5.90;;;;;;;7.91;100.00;100166.28;5025704;28;20123;-88
2023/12/12 09:32:02;;;;;;;32.33;6.07;;;;;;;7.98;100.00;100155.75;5019884;28;20044;-89
2023/12/12 09:34:28;;;;;;;37.22;6.10;;;;;;;8.06;100.00;100158.72;5043136;28;20127;-88
2023/12/12 09:36:54;;;;;;;27.30;5.65;;;;;;;8.20;100.00;100157.63;5022896;28;20021;-88
2023/12/12 09:39:19;;;;;;;25.92;6.47;;;;;;;8.30;100.00;100155.03;5003765;28;20491;-88
2023/12/12 09:41:49;;;;;;;37.15;6.50;;;;;;;8.55;100.00;100147.59;5017515;28;20033;-90
2023/12/12 09:44:16;;;;;;;36.75;6.28;;;;;;;8.66;100.00;100139.41;5034810;28;20033;-88
2023/12/12 09:46:43;;;;;;;32.50;6.07;;;;;;;8.89;100.00;100136.63;5018843;28;20099;-88
2023/12/12 09:49:11;;;;;;;30.10;5.88;;;;;;;9.02;100.00;100124.53;5032335;28;20123;-89
2023/12/12 09:51:40;;;;;;;31.88;4.80;;;;;;;9.47;100.00;100117.13;5022371;28;20037;-90
2023/12/12 09:54:07;;;;;;;18.35;4.28;;;;;;;9.65;100.00;100120.13;5038262;28;20029;-91
2023/12/12 09:56:37;;;;;;;15.68;3.00;;;;;;;9.56;100.00;100113.59;5019669;28;20048;-89
2023/12/12 09:59:03;;;;;;;31.08;3.65;;;;;;;9.50;100.00;100112.25;5020779;28;20032;-88
2023/12/12 10:01:33;;;;;;;24.05;2.88;;;;;;;9.38;100.00;100106.00;5020909;28;20524;-86
2023/12/12 10:04:05;;;;;;;18.00;3.08;;;;;;;9.34;100.00;100103.66;5033830;28;20057;-87
2023/12/12 10:06:42;;;;;;;27.63;4.28;;;;;;;9.31;100.00;100098.44;5037424;28;20025;-87
2023/12/12 10:09:09;;;;;;;17.33;3.40;;;;;;;9.27;100.00;100099.72;5039772;28;20012;-87
2023/12/12 10:11:34;;;;;;;19.58;3.67;;;;;;;9.08;100.00;100100.44;5049789;28;20035;-87
2023/12/12 10:14:00;;;;;;;18.33;3.95;;;;;;;9.06;100.00;100080.59;5060009;28;20112;-88
2023/12/12 10:16:27;;;;;;;17.35;3.15;;;;;;;9.02;100.00;100066.34;5041111;28;20062;-89
2023/12/12 10:18:52;;;;;;;18.20;3.22;;;;;;;8.95;100.00;100063.25;5044289;28;20025;-89
2023/12/12 10:21:22;;;;;;;19.65;3.22;;;;;;;8.89;100.00;100058.31;5042020;28;20100;-89
2023/12/12 10:23:50;;;;;;;27.50;4.38;;;;;;;8.90;100.00;100054.56;5014729;28;20045;-88
2023/12/12 10:26:24;;;;;;;20.25;4.40;;;;;;;8.88;100.00;100053.84;5059692;28;20601;-87
2023/12/12 10:28:50;;;;;;;18.58;3.47;;;;;;;8.89;100.00;100046.53;5062390;28;20025;-89
2023/12/12 10:31:18;;;;;;;23.88;4.32;;;;;;;8.87;100.00;100043.06;5012288;28;20418;-87
2023/12/12 10:33:44;;;;;;;19.63;4.07;;;;;;;8.87;100.00;100045.78;5040350;28;20518;-88
2023/12/12 10:36:12;;;;;;;25.17;4.10;;;;;;;8.92;100.00;100044.41;5020034;28;20061;-88
2023/12/12 10:38:41;;;;;;;19.88;3.47;;;;;;;9.01;100.00;100040.00;5047396;28;20036;-84
2023/12/12 10:41:18;;;;;;;21.23;3.83;;;;;;;9.06;100.00;100031.44;5038569;28;20103;-84
2023/12/12 10:43:45;;;;;;;20.95;4.43;;;;;;;9.09;100.00;100036.63;5059749;28;20024;-84
2023/12/12 10:46:12;;;;;;;13.85;3.38;;;;;;;9.11;100.00;100031.91;5018805;28;20028;-84
2023/12/12 10:48:45;;;;;;;12.45;3.65;;;;;;;9.23;100.00;100033.59;5057148;28;20025;-84
2023/12/12 10:51:11;;;;;;;16.73;3.38;;;;;;;9.34;100.00;100028.03;5041142;28;20028;-84
2023/12/12 10:53:38;;;;;;;17.20;2.97;;;;;;;9.47;100.00;100021.50;5031791;28;20036;-84
2023/12/12 10:56:05;;;;;;;16.08;2.88;;;;;;;9.44;100.00;100016.28;5036154;28;20588;-83
2023/12/12 10:58:33;;;;;;;11.55;2.45;;;;;;;9.45;100.00;100020.78;5043781;28;20391;-84
2023/12/12 11:01:00;;;;;;;12.10;2.78;;;;;;;9.38;100.00;100004.91;5026351;28;20028;-84
2023/12/12 11:03:27;;;;;;;22.30;3.20;;;;;;;9.49;100.00;100005.81;5028763;28;20028;-84
2023/12/12 11:05:55;;;;;;;13.70;3.10;;;;;;;9.54;100.00;100006.28;5034126;28;20021;-85
2023/12/12 11:08:23;;;;;;;16.55;2.88;;;;;;;9.65;100.00;99999.88;5054099;28;20039;-85
2023/12/12 11:10:53;;;;;;;13.13;3.22;;;;;;;9.71;100.00;99997.44;5011859;28;20057;-83